createdAt,value
2018-05-31T00:01:15.197Z,53.10
2018-05-31T00:03:43.067Z,39.77
2018-05-31T00:06:10.912Z,43.83
2018-05-31T00:08:38.735Z,53.57
2018-05-31T00:11:06.696Z,43.80
2018-05-31T00:13:34.648Z,81.87
2018-05-31T00:16:02.464Z,114.70
2018-05-31T00:18:31.109Z,36.73
2018-05-31T00:20:58.912Z,43.13
2018-05-31T00:23:27.511Z,36.87
2018-05-31T00:25:55.440Z,53.47
2018-05-31T00:28:23.431Z,43.53
2018-05-31T00:30:52.078Z,41.20
2018-05-31T00:33:19.917Z,223.47
2018-05-31T00:35:47.733Z,72.80
2018-05-31T00:38:15.608Z,54.03
2018-05-31T00:40:43.528Z,59.10
2018-05-31T00:43:11.309Z,30.57
2018-05-31T00:45:39.152Z,32.10
2018-05-31T00:48:06.980Z,38.63
2018-05-31T00:50:35.652Z,39.73
2018-05-31T00:53:03.529Z,39.17
2018-05-31T00:55:44.741Z,30.00
2018-05-31T00:58:12.675Z,37.47
2018-05-31T01:00:40.623Z,23.87
2018-05-31T01:03:08.526Z,25.17
2018-05-31T01:05:36.397Z,30.27
2018-05-31T01:08:04.267Z,39.03
2018-05-31T01:10:32.213Z,25.60
2018-05-31T01:13:00.844Z,38.33
2018-05-31T01:15:28.726Z,39.73
2018-05-31T01:17:56.580Z,36.13
2018-05-31T01:20:24.457Z,30.03
2018-05-31T01:22:52.277Z,27.00
2018-05-31T01:25:20.904Z,33.83
2018-05-31T01:27:48.754Z,36.57
2018-05-31T01:30:16.632Z,43.17
2018-05-31T01:32:44.857Z,32.87
2018-05-31T01:35:12.682Z,43.83
2018-05-31T01:37:40.528Z,45.83
2018-05-31T01:40:08.344Z,40.53
2018-05-31T01:42:36.190Z,41.57
2018-05-31T01:45:04.082Z,45.83
2018-05-31T01:47:31.948Z,45.63
2018-05-31T01:49:59.844Z,40.93
2018-05-31T01:52:28.431Z,42.37
2018-05-31T01:54:56.334Z,46.60
2018-05-31T01:57:24.179Z,45.47
2018-05-31T01:59:52.208Z,40.00
2018-05-31T02:02:19.968Z,42.60
2018-05-31T02:04:48.150Z,52.30
2018-05-31T02:07:16.699Z,41.33
2018-05-31T02:09:44.534Z,29.90
2018-05-31T02:12:12.395Z,28.47
2018-05-31T02:14:40.240Z,50.20
2018-05-31T02:17:08.140Z,58.93
2018-05-31T02:19:35.995Z,44.67
2018-05-31T02:22:05.057Z,29.03
2018-05-31T02:24:33.715Z,31.17
2018-05-31T02:27:01.567Z,42.70
2018-05-31T02:29:29.297Z,115.63
2018-05-31T02:31:57.255Z,114.90
2018-05-31T02:34:25.841Z,78.33
2018-05-31T02:36:54.030Z,129.37
2018-05-31T02:39:21.860Z,66.33
2018-05-31T02:41:50.549Z,54.93
2018-05-31T02:44:19.185Z,77.73
2018-05-31T02:46:47.708Z,88.57
2018-05-31T02:49:15.560Z,54.87
2018-05-31T02:51:43.379Z,61.90
2018-05-31T02:54:11.344Z,48.23
2018-05-31T02:56:39.334Z,48.33
2018-05-31T02:59:07.169Z,56.03
2018-05-31T03:01:35.930Z,68.67
2018-05-31T03:04:03.784Z,52.30
2018-05-31T03:06:32.377Z,44.50
2018-05-31T03:09:00.301Z,59.93
2018-05-31T03:11:28.158Z,76.70
2018-05-31T03:13:55.954Z,52.93
2018-05-31T03:16:23.716Z,51.00
2018-05-31T03:18:51.637Z,46.63
2018-05-31T03:21:19.549Z,49.53
2018-05-31T03:23:47.393Z,46.87
2018-05-31T03:26:15.367Z,47.47
2018-05-31T03:28:43.294Z,43.70
2018-05-31T03:31:12.020Z,50.73
2018-05-31T03:33:39.851Z,45.23
2018-05-31T03:36:07.767Z,40.70
2018-05-31T03:38:35.626Z,31.87
2018-05-31T03:41:03.826Z,28.30
2018-05-31T03:43:31.719Z,34.17
2018-05-31T03:46:00.380Z,28.83
2018-05-31T03:48:28.288Z,25.67
2018-05-31T03:50:56.988Z,31.87
2018-05-31T03:53:24.887Z,34.00
2018-05-31T03:55:52.806Z,25.27
2018-05-31T03:58:20.807Z,20.50
2018-05-31T04:00:48.839Z,15.73
2018-05-31T04:03:16.818Z,18.87
2018-05-31T04:05:46.520Z,23.70
2018-05-31T04:08:15.272Z,21.17
2018-05-31T04:10:43.858Z,24.17
2018-05-31T04:13:11.765Z,31.10
2018-05-31T04:15:40.159Z,22.33
2018-05-31T04:18:08.107Z,23.87
2018-05-31T04:20:36.949Z,28.17
2018-05-31T04:23:05.040Z,25.73
2018-05-31T04:25:33.011Z,23.13
2018-05-31T04:28:01.013Z,23.10
2018-05-31T04:30:30.240Z,30.53
2018-05-31T04:32:58.186Z,27.07
2018-05-31T04:35:26.204Z,24.00
2018-05-31T04:37:54.125Z,30.20
2018-05-31T04:40:22.212Z,28.33
2018-05-31T04:42:50.263Z,25.67
2018-05-31T04:45:19.368Z,31.87
2018-05-31T04:47:47.423Z,225.13
2018-05-31T04:50:15.491Z,202.10
2018-05-31T04:52:43.516Z,103.47
2018-05-31T04:55:11.655Z,65.67
2018-05-31T04:57:40.433Z,48.63
2018-05-31T05:00:08.495Z,42.43
2018-05-31T05:02:36.543Z,36.87
2018-05-31T05:05:04.770Z,43.03
2018-05-31T05:07:32.777Z,26.03
2018-05-31T05:10:00.790Z,24.80
2018-05-31T05:12:29.547Z,27.00
2018-05-31T05:14:57.715Z,27.53
2018-05-31T05:17:26.114Z,30.63
2018-05-31T05:19:54.091Z,29.37
2018-05-31T05:22:22.128Z,28.83
2018-05-31T05:24:50.142Z,30.60
2018-05-31T05:27:18.925Z,34.73
2018-05-31T05:29:47.715Z,30.50
2018-05-31T05:32:16.595Z,33.87
2018-05-31T05:34:44.724Z,33.90
2018-05-31T05:37:12.772Z,34.63
2018-05-31T05:39:40.728Z,31.07
2018-05-31T05:42:09.249Z,33.20
2018-05-31T05:44:37.021Z,37.93
2018-05-31T05:47:04.762Z,44.17
2018-05-31T05:49:32.529Z,37.83
2018-05-31T05:52:00.344Z,35.60
2018-05-31T05:54:28.072Z,48.00
2018-05-31T05:56:55.867Z,40.10
2018-05-31T05:59:23.578Z,58.27
2018-05-31T06:01:51.421Z,48.87
2018-05-31T06:04:19.194Z,42.33
2018-05-31T06:06:47.016Z,44.90
2018-05-31T06:09:14.787Z,45.53
2018-05-31T06:11:42.524Z,38.27
2018-05-31T06:14:10.267Z,28.80
2018-05-31T06:16:38.010Z,23.17
2018-05-31T06:19:05.784Z,24.83
2018-05-31T06:21:34.500Z,27.90
2018-05-31T06:24:02.265Z,28.17
2018-05-31T06:26:30.112Z,29.77
2018-05-31T06:28:57.748Z,31.30
2018-05-31T06:31:26.585Z,26.27
2018-05-31T06:33:54.333Z,20.13
2018-05-31T06:36:22.134Z,26.13
2018-05-31T06:38:49.877Z,15.87
2018-05-31T06:41:17.820Z,19.30
2018-05-31T06:43:46.290Z,18.73
2018-05-31T06:46:14.773Z,17.40
2018-05-31T06:48:43.246Z,17.23
2018-05-31T06:51:12.748Z,14.20
2018-05-31T06:53:40.768Z,13.30
2018-05-31T06:56:08.505Z,15.10
2018-05-31T06:58:36.253Z,16.97
2018-05-31T07:01:04.136Z,14.47
2018-05-31T07:03:32.667Z,16.47
2018-05-31T07:06:00.364Z,16.20
2018-05-31T07:08:28.053Z,18.03
2018-05-31T07:10:58.968Z,16.07
2018-05-31T07:13:27.512Z,16.57
2018-05-31T07:15:55.290Z,16.47
2018-05-31T07:18:23.010Z,15.27
2018-05-31T07:20:50.792Z,13.63
2018-05-31T07:23:18.504Z,15.07
2018-05-31T07:25:46.605Z,12.93
2018-05-31T07:28:14.320Z,18.23
2018-05-31T07:30:42.017Z,13.13
2018-05-31T07:33:10.582Z,10.20
2018-05-31T07:35:38.355Z,13.20
2018-05-31T07:38:06.858Z,16.07
2018-05-31T07:40:34.620Z,12.73
2018-05-31T07:43:02.447Z,14.80
2018-05-31T07:45:30.171Z,15.40
2018-05-31T07:47:57.912Z,13.57
2018-05-31T07:50:25.745Z,10.47
2018-05-31T07:52:53.433Z,13.40
2018-05-31T07:55:21.940Z,11.47
2018-05-31T07:57:49.746Z,14.10
2018-05-31T08:00:17.465Z,13.17
2018-05-31T08:02:45.204Z,12.83
2018-05-31T08:05:13.719Z,11.83
2018-05-31T08:07:41.442Z,10.70
2018-05-31T08:10:10.036Z,8.83
2018-05-31T08:12:38.569Z,9.70
2018-05-31T08:15:06.350Z,10.10
2018-05-31T08:17:34.125Z,13.03
2018-05-31T08:20:01.835Z,10.40
2018-05-31T08:22:29.531Z,9.27
2018-05-31T08:24:57.244Z,6.23
2018-05-31T08:27:24.953Z,11.23
2018-05-31T08:29:52.661Z,7.63
2018-05-31T08:32:20.388Z,7.37
2018-05-31T08:34:48.174Z,11.00
2018-05-31T08:37:15.915Z,9.00
2018-05-31T08:39:43.648Z,10.43
2018-05-31T08:42:11.360Z,7.13
2018-05-31T08:44:39.097Z,8.63
2018-05-31T08:47:06.893Z,5.73
2018-05-31T08:49:34.648Z,5.80
2018-05-31T08:52:02.376Z,6.03
2018-05-31T08:54:30.107Z,6.50
2018-05-31T08:56:57.913Z,7.67
2018-05-31T08:59:25.590Z,7.43
2018-05-31T09:01:53.381Z,7.33
2018-05-31T09:04:21.088Z,12.63
2018-05-31T09:06:48.778Z,8.27
2018-05-31T09:09:16.534Z,9.27
2018-05-31T09:11:44.376Z,9.20
2018-05-31T09:14:12.116Z,11.20
2018-05-31T09:16:40.649Z,10.17
2018-05-31T09:19:08.406Z,12.57
2018-05-31T09:21:36.171Z,13.77
2018-05-31T09:24:03.914Z,9.90
2018-05-31T09:26:31.637Z,7.97
2018-05-31T09:28:59.362Z,8.03
2018-05-31T09:31:27.143Z,7.80
2018-05-31T09:33:54.952Z,4.13
2018-05-31T09:36:22.733Z,6.10
2018-05-31T09:38:50.426Z,7.23
2018-05-31T09:41:18.149Z,5.83
2018-05-31T09:43:45.868Z,6.57
2018-05-31T09:46:13.557Z,5.73
2018-05-31T09:48:42.069Z,6.17
2018-05-31T09:51:09.980Z,4.73
2018-05-31T09:53:37.686Z,7.23
2018-05-31T09:56:05.398Z,6.27
2018-05-31T09:58:33.112Z,7.20
2018-05-31T10:01:00.861Z,3.63
2018-05-31T10:03:29.336Z,6.67
2018-05-31T10:05:58.219Z,6.67
2018-05-31T10:08:25.937Z,8.37
2018-05-31T10:10:53.711Z,6.20
2018-05-31T10:13:21.426Z,4.53
2018-05-31T10:15:49.903Z,4.20
2018-05-31T10:18:18.376Z,4.87
2018-05-31T10:20:47.089Z,6.13
2018-05-31T10:23:14.801Z,7.77
2018-05-31T10:25:42.537Z,7.43
2018-05-31T10:28:10.247Z,4.47
2018-05-31T10:30:38.128Z,6.37
2018-05-31T10:33:06.577Z,4.83
2018-05-31T10:35:34.361Z,7.10
2018-05-31T10:38:02.400Z,6.53
2018-05-31T10:40:30.124Z,5.80
2018-05-31T10:42:57.841Z,7.27
2018-05-31T10:45:25.544Z,3.43
2018-05-31T10:47:54.120Z,4.93
2018-05-31T10:50:22.569Z,5.67
2018-05-31T10:52:50.285Z,3.43
2018-05-31T10:55:18.010Z,8.03
2018-05-31T10:57:45.730Z,4.13
2018-05-31T11:00:13.444Z,4.43
2018-05-31T11:02:41.178Z,4.67
2018-05-31T11:05:08.931Z,3.93
2018-05-31T11:07:36.713Z,3.97
2018-05-31T11:10:04.565Z,4.17
2018-05-31T11:12:32.290Z,4.03
2018-05-31T11:15:00.064Z,4.73
2018-05-31T11:17:28.488Z,4.90
2018-05-31T11:19:56.212Z,5.40
2018-05-31T11:22:23.966Z,5.30
2018-05-31T11:24:51.702Z,3.33
2018-05-31T11:27:19.432Z,4.70
2018-05-31T11:29:47.149Z,8.17
2018-05-31T11:32:14.868Z,6.00
2018-05-31T11:34:42.581Z,4.87
2018-05-31T11:37:10.284Z,6.20
2018-05-31T11:39:37.981Z,8.00
2018-05-31T11:42:06.646Z,5.93
2018-05-31T11:44:34.367Z,8.33
2018-05-31T11:47:02.068Z,3.70
2018-05-31T11:49:29.791Z,3.17
2018-05-31T11:51:57.596Z,3.43
2018-05-31T11:54:25.312Z,9.03
2018-05-31T11:56:53.802Z,3.73
2018-05-31T11:59:21.565Z,4.47
2018-05-31T12:01:49.312Z,5.80
2018-05-31T12:04:17.052Z,6.30
2018-05-31T12:06:44.769Z,3.55
2018-05-31T12:09:12.473Z,3.40
2018-05-31T12:11:40.188Z,4.83
2018-05-31T12:14:08.245Z,5.37
2018-05-31T12:16:35.973Z,4.17
2018-05-31T12:19:03.743Z,5.37
2018-05-31T12:21:31.452Z,4.30
2018-05-31T12:23:59.159Z,6.50
2018-05-31T12:26:26.883Z,7.40
2018-05-31T12:28:54.574Z,7.63
2018-05-31T12:31:23.414Z,5.70
2018-05-31T12:33:51.156Z,4.30
2018-05-31T12:36:19.632Z,6.57
2018-05-31T12:38:47.360Z,4.10
2018-05-31T12:41:15.141Z,4.50
2018-05-31T12:43:42.926Z,4.93
2018-05-31T12:46:10.832Z,12.63
2018-05-31T12:48:38.529Z,5.60
2018-05-31T12:51:06.312Z,4.73
2018-05-31T12:53:34.098Z,4.37
2018-05-31T12:56:02.604Z,5.77
2018-05-31T12:58:30.301Z,4.90
2018-05-31T13:00:58.044Z,8.40
2018-05-31T13:03:25.769Z,5.37
2018-05-31T13:05:54.308Z,4.47
2018-05-31T13:08:22.065Z,4.83
2018-05-31T13:10:51.824Z,3.97
2018-05-31T13:13:20.310Z,5.70
2018-05-31T13:15:48.816Z,6.70
2018-05-31T13:18:16.591Z,8.10
2018-05-31T13:20:44.307Z,6.93
2018-05-31T13:23:11.997Z,13.40
2018-05-31T13:25:39.744Z,10.20
2018-05-31T13:28:08.302Z,5.60
2018-05-31T13:30:36.060Z,9.53
2018-05-31T13:33:03.808Z,6.23
2018-05-31T13:35:31.577Z,7.57
2018-05-31T13:37:59.356Z,9.73
2018-05-31T13:40:27.029Z,4.97
2018-05-31T13:42:54.745Z,9.43
2018-05-31T13:45:22.456Z,7.00
2018-05-31T13:47:50.150Z,5.47
2018-05-31T13:50:17.885Z,7.80
2018-05-31T13:52:45.615Z,5.27
2018-05-31T13:55:13.331Z,5.97
2018-05-31T13:57:41.032Z,5.87
2018-05-31T14:00:08.745Z,4.73
2018-05-31T14:02:37.211Z,6.27
2018-05-31T14:05:04.988Z,7.30
2018-05-31T14:07:33.552Z,6.50
2018-05-31T14:10:01.278Z,7.40
2018-05-31T14:12:29.104Z,5.97
2018-05-31T14:14:56.837Z,3.77
2018-05-31T14:17:24.553Z,6.33
2018-05-31T14:19:52.276Z,3.40
2018-05-31T14:22:20.048Z,4.23
2018-05-31T14:24:47.797Z,3.97
2018-05-31T14:27:15.529Z,10.83
2018-05-31T14:29:43.311Z,5.50
2018-05-31T14:32:11.052Z,7.37
2018-05-31T14:34:38.760Z,4.90
2018-05-31T14:37:06.491Z,4.40
2018-05-31T14:39:34.375Z,5.63
2018-05-31T14:42:02.093Z,11.03
2018-05-31T14:44:29.869Z,8.93
2018-05-31T14:46:57.600Z,7.70
2018-05-31T14:49:26.477Z,6.17
2018-05-31T14:51:54.378Z,7.77
2018-05-31T14:54:22.285Z,7.77
2018-05-31T14:56:50.073Z,7.10
2018-05-31T14:59:17.809Z,9.17
2018-05-31T15:01:45.518Z,3.70
2018-05-31T15:04:14.007Z,6.37
2018-05-31T15:06:41.738Z,5.82
2018-05-31T15:09:09.444Z,2.70
2018-05-31T15:11:38.004Z,6.90
2018-05-31T15:14:05.734Z,2.40
2018-05-31T15:16:33.433Z,3.60
2018-05-31T15:19:02.642Z,4.00
2018-05-31T15:21:31.128Z,3.42
2018-05-31T15:23:58.868Z,3.03
2018-05-31T15:26:26.916Z,3.75
2018-05-31T15:28:54.650Z,1.90
2018-05-31T15:31:22.450Z,2.03
2018-05-31T15:33:50.181Z,2.70
2018-05-31T15:36:17.963Z,6.87
2018-05-31T15:38:45.699Z,2.92
2018-05-31T15:41:13.470Z,3.85
2018-05-31T15:43:41.323Z,4.62
2018-05-31T15:46:09.110Z,5.10
2018-05-31T15:48:36.850Z,6.00
2018-05-31T15:51:04.628Z,5.85
2018-05-31T15:53:32.389Z,4.12
2018-05-31T15:56:00.160Z,3.58
2018-05-31T15:58:27.928Z,3.22
2018-05-31T16:00:56.747Z,5.25
2018-05-31T16:03:24.486Z,2.35
2018-05-31T16:05:52.276Z,2.95
2018-05-31T16:08:20.044Z,2.12
2018-05-31T16:10:47.793Z,2.87
2018-05-31T16:13:15.508Z,2.10
2018-05-31T16:15:43.293Z,2.70
2018-05-31T16:18:11.061Z,5.12
2018-05-31T16:20:38.799Z,6.90
2018-05-31T16:23:07.315Z,3.10
2018-05-31T16:25:35.109Z,4.95
2018-05-31T16:28:02.861Z,2.15
2018-05-31T16:30:30.608Z,1.98
2018-05-31T16:32:58.311Z,2.12
2018-05-31T16:35:26.026Z,3.55
2018-05-31T16:37:53.741Z,4.80
2018-05-31T16:40:21.506Z,7.03
2018-05-31T16:42:49.236Z,2.87
2018-05-31T16:45:16.959Z,4.97
2018-05-31T16:47:44.687Z,5.70
2018-05-31T16:50:12.429Z,3.33
2018-05-31T16:52:40.169Z,5.37
2018-05-31T16:55:07.878Z,5.67
2018-05-31T16:57:35.605Z,2.40
2018-05-31T17:00:04.419Z,3.63
2018-05-31T17:02:32.157Z,6.40
2018-05-31T17:04:59.918Z,3.90
2018-05-31T17:07:27.645Z,4.23
2018-05-31T17:09:56.134Z,3.33
2018-05-31T17:12:24.676Z,2.97
2018-05-31T17:14:52.434Z,3.57
2018-05-31T17:17:20.210Z,2.67
2018-05-31T17:19:47.997Z,4.47
2018-05-31T17:22:16.492Z,5.30
2018-05-31T17:24:44.998Z,2.93
2018-05-31T17:27:12.736Z,5.53
2018-05-31T17:29:41.271Z,5.97
2018-05-31T17:32:08.990Z,5.53
2018-05-31T17:34:36.720Z,3.67
2018-05-31T17:37:04.491Z,5.27
2018-05-31T17:39:32.185Z,6.63
2018-05-31T17:41:59.973Z,6.60
2018-05-31T17:44:27.684Z,5.03
2018-05-31T17:46:55.397Z,4.90
2018-05-31T17:49:23.143Z,3.67
2018-05-31T17:51:51.061Z,6.20
2018-05-31T17:54:18.811Z,4.23
2018-05-31T17:56:46.514Z,3.60
2018-05-31T17:59:15.004Z,8.93
2018-05-31T18:01:43.553Z,4.90
2018-05-31T18:04:11.278Z,6.07
2018-05-31T18:06:39.031Z,6.27
2018-05-31T18:09:06.791Z,5.60
2018-05-31T18:11:34.572Z,4.67
2018-05-31T18:14:02.292Z,3.30
2018-05-31T18:16:30.813Z,5.07
2018-05-31T18:18:58.516Z,8.03
2018-05-31T18:21:26.229Z,6.50
2018-05-31T18:23:53.972Z,4.30
2018-05-31T18:26:22.485Z,9.60
2018-05-31T18:28:50.206Z,6.50
2018-05-31T18:31:18.026Z,5.83
2018-05-31T18:33:45.806Z,5.20
2018-05-31T18:36:13.572Z,6.83
2018-05-31T18:38:41.565Z,6.00
2018-05-31T18:41:09.288Z,4.33
2018-05-31T18:43:37.015Z,3.33
2018-05-31T18:46:05.528Z,8.97
2018-05-31T18:48:33.262Z,6.10
2018-05-31T18:51:01.822Z,5.50
2018-05-31T18:53:29.600Z,2.90
2018-05-31T18:55:58.144Z,5.93
2018-05-31T18:58:26.214Z,7.23
2018-05-31T19:00:53.979Z,5.07
2018-05-31T19:03:21.685Z,4.70
2018-05-31T19:05:50.220Z,5.43
2018-05-31T19:08:17.938Z,6.27
2018-05-31T19:10:46.484Z,6.07
2018-05-31T19:13:19.777Z,5.60
2018-05-31T19:15:47.508Z,4.77
2018-05-31T19:18:20.714Z,3.70
2018-05-31T19:20:48.449Z,6.93
2018-05-31T19:23:16.147Z,6.00
2018-05-31T19:25:43.844Z,6.33
2018-05-31T19:28:12.401Z,5.00
2018-05-31T19:30:45.766Z,4.27
2018-05-31T19:33:13.505Z,4.10
2018-05-31T19:35:47.575Z,7.53
2018-05-31T19:38:15.264Z,6.50
2018-05-31T19:40:48.003Z,4.10
2018-05-31T19:43:34.538Z,9.27
2018-05-31T19:46:02.302Z,9.03
2018-05-31T19:48:30.045Z,11.33
2018-05-31T19:50:57.781Z,6.60
2018-05-31T19:53:31.072Z,7.87
2018-05-31T19:55:58.789Z,9.80
2018-05-31T19:58:32.172Z,6.00
2018-05-31T20:01:05.380Z,11.17
2018-05-31T20:03:33.883Z,7.53
2018-05-31T20:06:02.342Z,7.40
2018-05-31T20:08:30.027Z,8.10
2018-05-31T20:10:58.942Z,4.40
2018-05-31T20:13:26.638Z,9.27
2018-05-31T20:15:54.325Z,10.73
2018-05-31T20:18:22.013Z,8.30
2018-05-31T20:20:49.749Z,7.00
2018-05-31T20:23:17.474Z,9.53
2018-05-31T20:25:45.153Z,5.53
2018-05-31T20:28:12.840Z,6.13
2018-05-31T20:30:40.660Z,4.03
2018-05-31T20:33:08.334Z,6.07
2018-05-31T20:35:36.028Z,7.37
2018-05-31T20:38:03.740Z,6.90
2018-05-31T20:40:32.190Z,7.27
2018-05-31T20:43:00.657Z,9.43
2018-05-31T20:45:29.114Z,7.90
2018-05-31T20:47:56.797Z,5.93
2018-05-31T20:50:24.491Z,4.83
2018-05-31T20:52:52.187Z,7.00
2018-05-31T20:55:19.885Z,5.77
2018-05-31T20:57:48.365Z,11.93
2018-05-31T21:00:16.057Z,12.53
2018-05-31T21:02:43.900Z,9.47
2018-05-31T21:05:12.366Z,9.37
2018-05-31T21:07:40.077Z,10.37
2018-05-31T21:10:07.806Z,8.13
2018-05-31T21:12:36.252Z,7.23
2018-05-31T21:15:04.396Z,4.90
2018-05-31T21:17:32.091Z,8.73
2018-05-31T21:19:59.785Z,6.80
2018-05-31T21:22:27.493Z,10.97
2018-05-31T21:24:55.181Z,8.23
2018-05-31T21:27:22.869Z,12.50
2018-05-31T21:29:50.613Z,6.70
2018-05-31T21:32:18.294Z,8.03
2018-05-31T21:34:46.033Z,7.47
2018-05-31T21:37:13.721Z,8.57
2018-05-31T21:39:41.423Z,9.20
2018-05-31T21:42:09.120Z,10.90
2018-05-31T21:44:36.812Z,10.87
2018-05-31T21:47:05.365Z,10.67
2018-05-31T21:49:33.053Z,6.77
2018-05-31T21:52:00.745Z,8.03
2018-05-31T21:54:28.432Z,9.77
2018-05-31T21:56:56.120Z,7.77
2018-05-31T21:59:23.810Z,9.47
2018-05-31T22:01:52.281Z,8.50
2018-05-31T22:04:19.977Z,9.00
2018-05-31T22:06:47.708Z,8.63
2018-05-31T22:09:15.384Z,13.97
2018-05-31T22:11:43.852Z,10.53
2018-05-31T22:14:11.532Z,17.73
2018-05-31T22:16:39.986Z,11.67
2018-05-31T22:19:07.707Z,8.17
2018-05-31T22:21:35.429Z,10.70
2018-05-31T22:24:03.980Z,6.83
2018-05-31T22:26:31.672Z,15.53
2018-05-31T22:28:59.354Z,11.93
2018-05-31T22:31:27.817Z,8.27
2018-05-31T22:33:55.505Z,6.13
2018-05-31T22:36:23.337Z,21.93
2018-05-31T22:38:51.084Z,10.10
2018-05-31T22:41:18.772Z,7.10
2018-05-31T22:43:47.245Z,12.57
2018-05-31T22:46:14.941Z,9.13
2018-05-31T22:48:42.653Z,12.73
2018-05-31T22:51:10.413Z,10.13
2018-05-31T22:53:38.101Z,11.80
2018-05-31T22:56:05.811Z,9.23
2018-05-31T22:58:33.506Z,9.10
2018-05-31T23:01:01.198Z,7.77
2018-05-31T23:03:29.664Z,11.30
2018-05-31T23:05:57.369Z,11.10
2018-05-31T23:08:30.628Z,10.60
2018-05-31T23:10:59.220Z,16.00
2018-05-31T23:13:27.697Z,11.70
2018-05-31T23:15:55.404Z,6.17
2018-05-31T23:18:23.097Z,8.00
2018-05-31T23:20:50.809Z,11.27
2018-05-31T23:23:18.522Z,9.17
2018-05-31T23:25:46.215Z,16.23
2018-05-31T23:28:14.693Z,7.57
2018-05-31T23:30:43.176Z,12.10
2018-05-31T23:33:11.657Z,8.00
2018-05-31T23:35:40.160Z,8.53
2018-05-31T23:38:07.900Z,10.70
2018-05-31T23:40:36.385Z,7.30
2018-05-31T23:43:04.889Z,7.13
2018-05-31T23:45:32.592Z,9.33
2018-05-31T23:48:00.297Z,11.83
2018-05-31T23:50:28.053Z,8.33
2018-05-31T23:52:56.536Z,16.73
2018-05-31T23:55:25.014Z,13.83
2018-05-31T23:57:53.489Z,10.97
